Willard, Missouri
Current Conditions -  °F | °C
As of 12:52 PM on Tuesday 21 Oct 2014 (Local Time) from KSGF Reporting Station
Clear Clear  
Wind Chill: 72°   Ceiling: Unl
Heat Index: 72°   Visibility: 10mi
Dew Point: 42°   Wind: 3mph
Humidity: 34%   Direction: 320°NW
Pressure: 30.13"   Gusts: NA
Location:  37.31°N, 93.43°W
Report Text: KSGF 211752Z 32003KT 10SM CLR 22/06 A3013 RMK AO2 SLP196 T02220056 10222 20072 58005
Loading
Personal Weather Stations






























Interactive Weather Map
Tropical Storm Tracking
New forecast layout! Learn more

10-Day Weather Forecast

Advertisements
Track Severe Weather on mobile